createdAt,value
2017-12-05T00:01:54.363Z,17.47
2017-12-05T00:04:22.440Z,13.73
2017-12-05T00:06:49.954Z,14.47
2017-12-05T00:09:17.446Z,11.53
2017-12-05T00:11:44.976Z,24.97
2017-12-05T00:14:12.457Z,22.43
2017-12-05T00:16:39.989Z,30.23
2017-12-05T00:19:07.498Z,15.43
2017-12-05T00:21:35.080Z,12.73
2017-12-05T00:24:02.570Z,13.60
2017-12-05T00:26:30.266Z,16.40
2017-12-05T00:28:57.802Z,13.77
2017-12-05T00:31:25.256Z,11.77
2017-12-05T00:33:52.759Z,9.17
2017-12-05T00:36:20.235Z,9.83
2017-12-05T00:38:47.715Z,15.13
2017-12-05T00:41:15.227Z,42.23
2017-12-05T00:43:42.752Z,13.97
2017-12-05T00:46:10.264Z,18.73
2017-12-05T00:48:37.751Z,19.50
2017-12-05T00:51:05.228Z,14.23
2017-12-05T00:53:32.759Z,15.13
2017-12-05T00:56:00.241Z,15.93
2017-12-05T00:58:27.715Z,14.40
2017-12-05T01:00:55.215Z,14.23
2017-12-05T01:03:22.803Z,18.10
2017-12-05T01:05:50.448Z,12.23
2017-12-05T01:08:18.016Z,7.63
2017-12-05T01:10:45.502Z,9.67
2017-12-05T01:13:13.032Z,24.30
2017-12-05T01:15:40.518Z,14.17
2017-12-05T01:18:08.004Z,16.77
2017-12-05T01:20:35.604Z,14.07
2017-12-05T01:23:03.167Z,8.30
2017-12-05T01:25:30.663Z,12.70
2017-12-05T01:27:58.204Z,13.70
2017-12-05T01:30:25.742Z,20.70
2017-12-05T01:32:53.255Z,12.63
2017-12-05T01:35:20.743Z,18.53
2017-12-05T01:37:48.229Z,16.03
2017-12-05T01:40:15.795Z,22.23
2017-12-05T01:42:43.278Z,18.37
2017-12-05T01:45:10.759Z,15.80
2017-12-05T01:47:38.268Z,12.73
2017-12-05T01:50:05.783Z,19.27
2017-12-05T01:52:33.270Z,13.30
2017-12-05T01:55:00.752Z,13.00
2017-12-05T01:57:28.280Z,15.97
2017-12-05T01:59:55.756Z,20.83
2017-12-05T02:02:23.249Z,18.13
2017-12-05T02:04:50.760Z,12.40
2017-12-05T02:07:18.239Z,23.67
2017-12-05T02:09:45.723Z,7.10
2017-12-05T02:12:13.237Z,15.83
2017-12-05T02:14:40.717Z,8.33
2017-12-05T02:17:08.196Z,24.07
2017-12-05T02:19:35.706Z,16.70
2017-12-05T02:22:03.195Z,15.80
2017-12-05T02:24:30.737Z,21.63
2017-12-05T02:26:58.277Z,20.03
2017-12-05T02:29:25.765Z,21.47
2017-12-05T02:31:53.293Z,11.00
2017-12-05T02:34:20.826Z,12.20
2017-12-05T02:36:48.308Z,11.40
2017-12-05T02:39:15.792Z,18.17
2017-12-05T02:41:43.311Z,19.90
2017-12-05T02:44:10.800Z,13.87
2017-12-05T02:46:38.279Z,24.53
2017-12-05T02:49:05.801Z,16.90
2017-12-05T02:51:33.284Z,17.80
2017-12-05T02:54:00.767Z,10.10
2017-12-05T02:56:28.300Z,11.67
2017-12-05T02:58:55.830Z,12.23
2017-12-05T03:01:23.311Z,12.10
2017-12-05T03:03:50.848Z,14.77
2017-12-05T03:06:18.408Z,12.20
2017-12-05T03:08:45.968Z,9.10
2017-12-05T03:11:13.489Z,11.40
2017-12-05T03:13:40.967Z,16.60
2017-12-05T03:16:08.457Z,12.97
2017-12-05T03:18:35.978Z,10.57
2017-12-05T03:21:03.469Z,17.47
2017-12-05T03:23:30.955Z,10.83
2017-12-05T03:25:58.457Z,13.00
2017-12-05T03:28:25.940Z,10.80
2017-12-05T03:30:53.457Z,14.93
2017-12-05T03:33:20.933Z,11.73
2017-12-05T03:35:48.416Z,9.20
2017-12-05T03:38:15.943Z,11.97
2017-12-05T03:40:43.432Z,10.57
2017-12-05T03:43:10.912Z,9.60
2017-12-05T03:45:38.572Z,11.30
2017-12-05T03:48:06.057Z,10.90
2017-12-05T03:50:33.544Z,14.13
2017-12-05T03:53:01.059Z,13.37
2017-12-05T03:55:28.550Z,12.10
2017-12-05T03:57:56.037Z,10.43
2017-12-05T04:00:23.607Z,12.67
2017-12-05T04:02:51.083Z,10.83
2017-12-05T04:05:18.590Z,13.23
2017-12-05T04:07:46.135Z,12.63
2017-12-05T04:10:13.621Z,14.70
2017-12-05T04:12:41.177Z,10.43
2017-12-05T04:15:08.704Z,11.07
2017-12-05T04:17:36.259Z,9.37
2017-12-05T04:20:03.751Z,13.77
2017-12-05T04:22:31.263Z,11.37
2017-12-05T04:24:58.746Z,11.17
2017-12-05T04:27:26.232Z,10.70
2017-12-05T04:29:53.787Z,10.47
2017-12-05T04:32:21.336Z,18.40
2017-12-05T04:34:48.821Z,11.97
2017-12-05T04:37:16.357Z,9.97
2017-12-05T04:39:43.861Z,12.87
2017-12-05T04:42:11.344Z,11.83
2017-12-05T04:44:38.866Z,13.97
2017-12-05T04:47:06.362Z,13.07
2017-12-05T04:49:33.853Z,18.33
2017-12-05T04:52:01.384Z,18.07
2017-12-05T04:54:28.991Z,17.40
2017-12-05T04:56:56.471Z,13.23
2017-12-05T04:59:24.086Z,14.80
2017-12-05T05:01:52.568Z,15.57
2017-12-05T05:04:20.056Z,16.00
2017-12-05T05:06:47.580Z,16.67
2017-12-05T05:09:15.062Z,14.80
2017-12-05T05:11:42.548Z,15.33
2017-12-05T05:14:10.061Z,20.17
2017-12-05T05:16:37.542Z,17.30
2017-12-05T05:19:05.024Z,15.13
2017-12-05T05:21:32.548Z,15.33
2017-12-05T05:24:00.036Z,17.40
2017-12-05T05:26:27.528Z,20.10
2017-12-05T05:28:55.073Z,35.10
2017-12-05T05:31:22.588Z,22.93
2017-12-05T05:33:50.076Z,21.20
2017-12-05T05:36:17.682Z,27.67
2017-12-05T05:38:45.170Z,16.70
2017-12-05T05:41:12.656Z,21.20
2017-12-05T05:43:40.174Z,19.23
2017-12-05T05:46:07.658Z,17.87
2017-12-05T05:48:35.156Z,19.13
2017-12-05T05:51:02.675Z,17.13
2017-12-05T05:53:30.166Z,20.37
2017-12-05T05:55:57.652Z,14.23
2017-12-05T05:58:25.186Z,16.10
2017-12-05T06:00:52.676Z,22.80
2017-12-05T06:03:20.157Z,18.17
2017-12-05T06:05:47.680Z,13.40
2017-12-05T06:08:15.239Z,18.70
2017-12-05T06:10:42.718Z,20.37
2017-12-05T06:13:10.240Z,23.37
2017-12-05T06:15:37.726Z,19.13
2017-12-05T06:18:05.274Z,13.90
2017-12-05T06:20:32.796Z,14.33
2017-12-05T06:23:00.275Z,19.57
2017-12-05T06:25:27.763Z,14.33
2017-12-05T06:27:55.293Z,11.77
2017-12-05T06:30:22.861Z,15.53
2017-12-05T06:32:50.348Z,16.20
2017-12-05T06:35:17.899Z,16.47
2017-12-05T06:37:45.439Z,18.20
2017-12-05T06:40:13.000Z,13.67
2017-12-05T06:42:40.499Z,16.60
2017-12-05T06:45:07.986Z,16.17
2017-12-05T06:47:35.504Z,10.03
2017-12-05T06:50:02.988Z,13.37
2017-12-05T06:52:30.467Z,11.47
2017-12-05T06:54:57.992Z,12.67
2017-12-05T06:57:25.473Z,13.87
2017-12-05T06:59:52.948Z,9.77
2017-12-05T07:02:20.474Z,19.60
2017-12-05T07:04:47.951Z,12.33
2017-12-05T07:07:15.431Z,9.30
2017-12-05T07:09:42.935Z,9.63
2017-12-05T07:12:10.451Z,6.60
2017-12-05T07:14:37.937Z,11.63
2017-12-05T07:17:05.424Z,12.50
2017-12-05T07:19:32.923Z,9.50
2017-12-05T07:22:00.486Z,15.57
2017-12-05T07:24:28.042Z,9.80
2017-12-05T07:26:55.519Z,5.93
2017-12-05T07:29:23.059Z,8.57
2017-12-05T07:31:50.539Z,13.43
2017-12-05T07:34:18.021Z,7.13
2017-12-05T07:36:45.639Z,8.80
2017-12-05T07:39:13.119Z,11.57
2017-12-05T07:41:40.603Z,6.50
2017-12-05T07:44:08.118Z,8.00
2017-12-05T07:46:35.619Z,7.97
2017-12-05T07:49:03.139Z,7.70
2017-12-05T07:51:30.631Z,10.30
2017-12-05T07:53:58.962Z,8.40
2017-12-05T07:56:26.480Z,8.30
2017-12-05T07:58:53.959Z,9.10
2017-12-05T08:01:21.466Z,7.23
2017-12-05T08:03:48.976Z,6.10
2017-12-05T08:06:16.456Z,4.07
2017-12-05T08:08:44.007Z,11.13
2017-12-05T08:11:11.536Z,6.27
2017-12-05T08:13:39.023Z,9.00
2017-12-05T08:16:06.501Z,6.40
2017-12-05T08:18:34.007Z,6.97
2017-12-05T08:21:01.493Z,11.30
2017-12-05T08:23:28.981Z,6.20
2017-12-05T08:25:56.495Z,9.83
2017-12-05T08:28:23.975Z,5.40
2017-12-05T08:30:51.464Z,5.70
2017-12-05T08:33:18.988Z,18.93
2017-12-05T08:35:46.469Z,5.53
2017-12-05T08:38:13.955Z,9.57
2017-12-05T08:40:41.492Z,8.03
2017-12-05T08:43:08.990Z,4.70
2017-12-05T08:45:36.472Z,6.93
2017-12-05T08:48:03.975Z,6.70
2017-12-05T08:50:31.519Z,7.80
2017-12-05T08:52:59.051Z,6.53
2017-12-05T08:55:26.529Z,5.10
2017-12-05T08:57:54.011Z,3.70
2017-12-05T09:00:21.524Z,4.30
2017-12-05T09:02:49.007Z,3.83
2017-12-05T09:05:16.491Z,3.60
2017-12-05T09:07:43.994Z,4.83
2017-12-05T09:10:11.480Z,6.77
2017-12-05T09:12:38.967Z,3.40
2017-12-05T09:15:06.576Z,6.63
2017-12-05T09:17:34.057Z,3.10
2017-12-05T09:20:01.606Z,6.17
2017-12-05T09:22:29.124Z,6.10
2017-12-05T09:24:56.604Z,6.07
2017-12-05T09:27:24.099Z,5.80
2017-12-05T09:29:51.607Z,4.03
2017-12-05T09:32:19.183Z,9.43
2017-12-05T09:34:46.714Z,6.30
2017-12-05T09:37:14.207Z,5.10
2017-12-05T09:39:41.698Z,4.67
2017-12-05T09:42:09.273Z,7.00
2017-12-05T09:44:36.791Z,4.10
2017-12-05T09:47:04.283Z,5.90
2017-12-05T09:49:31.895Z,6.93
2017-12-05T09:51:59.422Z,4.93
2017-12-05T09:54:26.949Z,4.63
2017-12-05T09:56:54.423Z,9.23
2017-12-05T09:59:21.910Z,5.50
2017-12-05T10:01:49.419Z,4.53
2017-12-05T10:04:17.049Z,6.70
2017-12-05T10:06:44.541Z,10.87
2017-12-05T10:09:12.075Z,10.33
2017-12-05T10:11:39.642Z,8.10
2017-12-05T10:14:07.128Z,9.70
2017-12-05T10:16:34.609Z,4.70
2017-12-05T10:19:02.139Z,8.60
2017-12-05T10:21:29.625Z,21.67
2017-12-05T10:23:57.213Z,5.07
2017-12-05T10:26:24.713Z,6.50
2017-12-05T10:28:52.233Z,7.20
2017-12-05T10:31:19.718Z,6.63
2017-12-05T10:33:47.264Z,8.33
2017-12-05T10:36:14.776Z,21.23
2017-12-05T10:38:42.362Z,14.60
2017-12-05T10:41:09.911Z,10.33
2017-12-05T10:43:37.400Z,11.30
2017-12-05T10:46:04.960Z,14.20
2017-12-05T10:48:32.495Z,6.10
2017-12-05T10:50:59.980Z,6.67
2017-12-05T10:53:27.501Z,11.70
2017-12-05T10:55:54.979Z,5.97
2017-12-05T10:58:22.532Z,12.40
2017-12-05T11:00:50.055Z,7.80
2017-12-05T11:03:17.544Z,19.00
2017-12-05T11:05:45.110Z,10.60
2017-12-05T11:08:12.621Z,12.03
2017-12-05T11:10:40.115Z,6.70
2017-12-05T11:13:07.644Z,6.50
2017-12-05T11:15:35.163Z,9.50
2017-12-05T11:18:02.635Z,7.37
2017-12-05T11:20:30.112Z,7.23
2017-12-05T11:22:57.735Z,8.20
2017-12-05T11:25:25.223Z,10.90
2017-12-05T11:27:52.707Z,10.23
2017-12-05T11:30:20.286Z,8.27
2017-12-05T11:32:47.768Z,4.40
2017-12-05T11:35:15.245Z,8.07
2017-12-05T11:37:42.751Z,14.57
2017-12-05T11:40:10.235Z,11.20
2017-12-05T11:42:37.759Z,5.80
2017-12-05T11:45:05.317Z,7.07
2017-12-05T11:47:32.803Z,6.40
2017-12-05T11:50:00.311Z,5.93
2017-12-05T11:52:27.837Z,6.17
2017-12-05T11:54:55.315Z,8.20
2017-12-05T11:57:22.849Z,8.73
2017-12-05T11:59:50.368Z,7.00
2017-12-05T12:02:17.840Z,3.50
2017-12-05T12:04:45.327Z,4.93
2017-12-05T12:07:12.843Z,6.20
2017-12-05T12:09:40.319Z,7.73
2017-12-05T12:12:07.810Z,5.73
2017-12-05T12:14:35.339Z,11.10
2017-12-05T12:17:02.822Z,7.73
2017-12-05T12:19:30.372Z,4.80
2017-12-05T12:21:57.943Z,8.50
2017-12-05T12:24:25.415Z,14.57
2017-12-05T12:26:52.927Z,5.00
2017-12-05T12:29:20.508Z,10.47
2017-12-05T12:31:48.043Z,7.97
2017-12-05T12:34:15.527Z,8.20
2017-12-05T12:36:43.036Z,7.10
2017-12-05T12:39:10.520Z,13.00
2017-12-05T12:41:38.070Z,36.93
2017-12-05T12:44:05.559Z,10.60
2017-12-05T12:46:33.052Z,13.10
2017-12-05T12:49:00.660Z,21.00
2017-12-05T12:51:28.151Z,8.40
2017-12-05T12:53:55.632Z,17.47
2017-12-05T12:56:23.236Z,9.73
2017-12-05T12:58:50.730Z,19.50
2017-12-05T13:01:18.211Z,8.30
2017-12-05T13:03:45.904Z,8.70
2017-12-05T13:06:13.399Z,9.07
2017-12-05T13:08:40.888Z,13.50
2017-12-05T13:11:08.406Z,9.73
2017-12-05T13:13:35.879Z,6.90
2017-12-05T13:16:03.364Z,8.87
2017-12-05T13:18:30.900Z,15.07
2017-12-05T13:20:58.384Z,15.47
2017-12-05T13:23:25.870Z,19.30
2017-12-05T13:25:53.386Z,7.87
2017-12-05T13:28:20.869Z,21.73
2017-12-05T13:30:48.354Z,10.33
2017-12-05T13:33:15.864Z,11.93
2017-12-05T13:35:43.391Z,17.27
2017-12-05T13:38:10.880Z,12.47
2017-12-05T13:40:38.360Z,9.77
2017-12-05T13:43:05.884Z,10.53
2017-12-05T13:45:33.364Z,15.57
2017-12-05T13:48:00.848Z,13.43
2017-12-05T13:50:28.475Z,11.90
2017-12-05T13:52:56.087Z,10.00
2017-12-05T13:55:23.562Z,14.27
2017-12-05T13:57:51.091Z,12.47
2017-12-05T14:00:18.629Z,21.30
2017-12-05T14:02:46.091Z,18.27
2017-12-05T14:05:13.614Z,19.00
2017-12-05T14:07:41.103Z,23.00
2017-12-05T14:10:08.595Z,18.10
2017-12-05T14:12:36.123Z,14.43
2017-12-05T14:15:03.696Z,14.80
2017-12-05T14:17:31.187Z,21.47
2017-12-05T14:19:58.715Z,10.70
2017-12-05T14:22:26.199Z,20.50
2017-12-05T14:24:53.690Z,14.00
2017-12-05T14:27:21.216Z,22.63
2017-12-05T14:29:48.728Z,18.03
2017-12-05T14:32:16.218Z,20.00
2017-12-05T14:34:43.751Z,15.47
2017-12-05T14:37:11.244Z,16.80
2017-12-05T14:39:38.729Z,10.70
2017-12-05T14:42:06.256Z,20.97
2017-12-05T14:44:33.740Z,26.90
2017-12-05T14:47:01.267Z,22.80
2017-12-05T14:49:28.779Z,13.33
2017-12-05T14:51:56.275Z,16.37
2017-12-05T14:54:23.809Z,18.00
2017-12-05T14:56:51.319Z,22.50
2017-12-05T14:59:18.818Z,19.70
2017-12-05T15:01:46.410Z,32.53
2017-12-05T15:04:13.899Z,30.20
2017-12-05T15:06:41.397Z,20.40
2017-12-05T15:09:08.961Z,21.20
2017-12-05T15:11:36.423Z,19.80
2017-12-05T15:14:03.962Z,20.37
2017-12-05T15:16:31.450Z,16.40
2017-12-05T15:18:58.953Z,16.63
2017-12-05T15:21:26.485Z,23.13
2017-12-05T15:23:54.027Z,18.83
2017-12-05T15:26:21.524Z,21.73
2017-12-05T15:28:49.049Z,15.70
2017-12-05T15:31:16.605Z,16.67
2017-12-05T15:33:44.088Z,22.53
2017-12-05T15:36:11.739Z,15.93
2017-12-05T15:38:39.224Z,23.03
2017-12-05T15:41:06.739Z,19.30
2017-12-05T15:43:34.260Z,18.13
2017-12-05T15:46:01.859Z,16.83
2017-12-05T15:48:29.356Z,16.60
2017-12-05T15:50:56.882Z,18.17
2017-12-05T15:53:24.425Z,19.13
2017-12-05T15:55:51.920Z,12.17
2017-12-05T15:58:19.415Z,19.30
2017-12-05T16:00:46.949Z,16.43
2017-12-05T16:03:14.457Z,16.00
2017-12-05T16:05:41.944Z,23.60
2017-12-05T16:08:09.599Z,15.83
2017-12-05T16:10:37.084Z,16.67
2017-12-05T16:13:04.589Z,15.50
2017-12-05T16:15:32.128Z,17.33
2017-12-05T16:17:59.639Z,16.77
2017-12-05T16:20:27.134Z,16.10
2017-12-05T16:22:54.730Z,16.63
2017-12-05T16:25:22.292Z,23.47
2017-12-05T16:27:49.776Z,18.17
2017-12-05T16:30:17.296Z,23.90
2017-12-05T16:32:44.772Z,14.03
2017-12-05T16:35:12.275Z,11.20
2017-12-05T16:37:39.764Z,11.40
2017-12-05T16:40:07.339Z,14.27
2017-12-05T16:42:34.832Z,12.50
2017-12-05T16:45:02.324Z,16.40
2017-12-05T16:47:29.907Z,13.73
2017-12-05T16:49:57.399Z,14.13
2017-12-05T16:52:24.925Z,18.60
2017-12-05T16:54:52.499Z,15.37
2017-12-05T16:57:20.075Z,16.90
2017-12-05T16:59:47.595Z,12.10
2017-12-05T17:02:15.160Z,10.83
2017-12-05T17:04:42.728Z,12.80
2017-12-05T17:07:10.231Z,16.10
2017-12-05T17:09:37.765Z,17.27
2017-12-05T17:12:05.264Z,52.87
2017-12-05T17:14:32.749Z,24.20
2017-12-05T17:17:00.263Z,16.43
2017-12-05T17:19:27.762Z,12.63
2017-12-05T17:21:55.356Z,14.77
2017-12-05T17:24:22.855Z,18.67
2017-12-05T17:26:50.370Z,27.60
2017-12-05T17:29:17.887Z,17.80
2017-12-05T17:31:45.379Z,30.30
2017-12-05T17:34:12.868Z,22.07
2017-12-05T17:36:40.391Z,27.60
2017-12-05T17:39:07.876Z,27.83
2017-12-05T17:41:35.421Z,32.70
2017-12-05T17:44:02.955Z,26.00
2017-12-05T17:46:30.525Z,31.90
2017-12-05T17:48:58.023Z,22.63
2017-12-05T17:51:25.643Z,20.27
2017-12-05T17:53:53.132Z,28.03
2017-12-05T17:56:20.624Z,19.13
2017-12-05T17:58:48.155Z,20.93
2017-12-05T18:01:15.639Z,25.33
2017-12-05T18:03:43.121Z,29.77
2017-12-05T18:06:10.697Z,32.10
2017-12-05T18:08:38.187Z,22.07
2017-12-05T18:11:05.681Z,19.73
2017-12-05T18:13:33.260Z,30.20
2017-12-05T18:16:00.746Z,23.03
2017-12-05T18:18:28.280Z,21.97
2017-12-05T18:20:55.794Z,23.33
2017-12-05T18:23:23.285Z,26.97
2017-12-05T18:25:50.773Z,29.30
2017-12-05T18:28:18.291Z,29.67
2017-12-05T18:30:45.779Z,25.23
2017-12-05T18:33:13.331Z,38.30
2017-12-05T18:35:40.909Z,37.70
2017-12-05T18:38:08.403Z,23.33
2017-12-05T18:40:35.896Z,33.07
2017-12-05T18:43:03.434Z,27.43
2017-12-05T18:45:30.926Z,27.50
2017-12-05T18:47:58.413Z,28.07
2017-12-05T18:50:25.945Z,24.60
2017-12-05T18:52:53.698Z,25.70
2017-12-05T18:55:21.262Z,23.13
2017-12-05T18:57:48.784Z,30.70
2017-12-05T19:00:16.379Z,26.97
2017-12-05T19:02:43.883Z,31.27
2017-12-05T19:05:11.398Z,31.03
2017-12-05T19:07:38.891Z,28.13
2017-12-05T19:10:06.515Z,22.93
2017-12-05T19:12:34.073Z,24.70
2017-12-05T19:15:01.640Z,27.13
2017-12-05T19:17:29.192Z,24.93
2017-12-05T19:19:56.680Z,25.47
2017-12-05T19:22:24.227Z,22.50
2017-12-05T19:24:51.882Z,28.67
2017-12-05T19:27:19.449Z,28.53
2017-12-05T19:29:46.936Z,44.80
2017-12-05T19:32:14.455Z,30.03
2017-12-05T19:34:41.945Z,32.30
2017-12-05T19:37:09.446Z,37.33
2017-12-05T19:39:36.968Z,29.83
2017-12-05T19:42:04.463Z,26.60
2017-12-05T19:44:32.043Z,30.63
2017-12-05T19:46:59.596Z,23.87
2017-12-05T19:49:27.084Z,31.27
2017-12-05T19:51:54.595Z,29.27
2017-12-05T19:54:22.216Z,26.80
2017-12-05T19:56:49.699Z,33.60
2017-12-05T19:59:17.233Z,26.70
2017-12-05T20:01:44.871Z,27.90
2017-12-05T20:04:12.414Z,29.93
2017-12-05T20:06:39.917Z,26.70
2017-12-05T20:09:07.434Z,27.70
2017-12-05T20:11:34.924Z,34.20
2017-12-05T20:14:02.420Z,25.30
2017-12-05T20:16:29.954Z,27.97
2017-12-05T20:18:57.443Z,27.57
2017-12-05T20:21:24.939Z,25.93
2017-12-05T20:23:52.478Z,22.97
2017-12-05T20:26:19.975Z,25.43
2017-12-05T20:28:47.464Z,23.70
2017-12-05T20:31:15.024Z,31.50
2017-12-05T20:33:42.525Z,25.53
2017-12-05T20:36:10.012Z,24.03
2017-12-05T20:38:37.537Z,29.10
2017-12-05T20:41:05.019Z,29.03
2017-12-05T20:43:32.518Z,28.37
2017-12-05T20:46:00.055Z,28.20
2017-12-05T20:48:27.545Z,28.70
2017-12-05T20:50:55.033Z,33.10
2017-12-05T20:53:22.572Z,28.30
2017-12-05T20:55:50.063Z,23.27
2017-12-05T20:58:17.552Z,30.63
2017-12-05T21:00:45.087Z,50.70
2017-12-05T21:03:12.579Z,25.50
2017-12-05T21:05:40.068Z,25.17
2017-12-05T21:08:07.594Z,25.43
2017-12-05T21:10:35.083Z,39.53
2017-12-05T21:13:02.566Z,35.37
2017-12-05T21:15:30.114Z,28.40
2017-12-05T21:17:57.607Z,18.10
2017-12-05T21:20:25.132Z,29.27
2017-12-05T21:22:52.660Z,32.27
2017-12-05T21:25:20.149Z,21.43
2017-12-05T21:27:47.631Z,30.60
2017-12-05T21:30:15.145Z,27.93
2017-12-05T21:32:42.644Z,29.90
2017-12-05T21:35:10.164Z,41.43
2017-12-05T21:37:37.723Z,34.60
2017-12-05T21:40:05.208Z,50.63
2017-12-05T21:42:32.702Z,30.30
2017-12-05T21:45:00.237Z,42.13
2017-12-05T21:47:27.739Z,49.00
2017-12-05T21:49:55.332Z,48.03
2017-12-05T21:52:22.857Z,33.80
2017-12-05T21:54:50.458Z,43.97
2017-12-05T21:57:17.943Z,45.37
2017-12-05T21:59:45.451Z,27.33
2017-12-05T22:02:12.943Z,25.83
2017-12-05T22:04:40.487Z,30.67
2017-12-05T22:07:07.975Z,21.30
2017-12-05T22:09:35.476Z,28.67
2017-12-05T22:12:03.018Z,39.50
2017-12-05T22:14:30.510Z,26.40
2017-12-05T22:16:58.000Z,22.30
2017-12-05T22:19:25.511Z,30.13
2017-12-05T22:21:53.007Z,30.07
2017-12-05T22:24:20.496Z,37.60
2017-12-05T22:26:48.006Z,27.20
2017-12-05T22:29:15.499Z,30.30
2017-12-05T22:31:43.032Z,33.10
2017-12-05T22:34:10.526Z,37.97
2017-12-05T22:36:38.036Z,29.57
2017-12-05T22:39:05.567Z,39.30
2017-12-05T22:41:33.048Z,36.23
2017-12-05T22:44:00.536Z,36.13
2017-12-05T22:46:28.063Z,32.13
2017-12-05T22:48:55.554Z,28.70
2017-12-05T22:51:23.040Z,33.60
2017-12-05T22:53:50.566Z,35.33
2017-12-05T22:56:18.081Z,34.73
2017-12-05T22:58:45.564Z,32.30
2017-12-05T23:01:13.109Z,30.13
2017-12-05T23:03:40.618Z,27.33
2017-12-05T23:06:08.107Z,37.37
2017-12-05T23:08:35.624Z,33.33
2017-12-05T23:11:03.115Z,31.97
2017-12-05T23:13:30.605Z,21.43
2017-12-05T23:15:58.128Z,25.73
2017-12-05T23:18:25.618Z,28.70
2017-12-05T23:20:53.104Z,30.87
2017-12-05T23:23:20.639Z,28.10
2017-12-05T23:25:48.133Z,30.00
2017-12-05T23:28:15.624Z,22.13
2017-12-05T23:30:43.219Z,31.90
2017-12-05T23:33:10.750Z,35.83
2017-12-05T23:35:38.251Z,31.93
2017-12-05T23:38:05.788Z,27.50
2017-12-05T23:40:33.327Z,30.30
2017-12-05T23:43:00.894Z,27.60
2017-12-05T23:45:28.399Z,27.57
2017-12-05T23:47:55.884Z,30.37
2017-12-05T23:50:23.405Z,22.43
2017-12-05T23:52:50.920Z,23.13
2017-12-05T23:55:18.399Z,23.40
2017-12-05T23:57:46.047Z,15.27
